createdAt,value
2023-05-13T00:00:07.019Z,100144.06
2023-05-13T00:02:36.655Z,100140.41
2023-05-13T00:05:04.024Z,100139.38
2023-05-13T00:07:31.291Z,100148.84
2023-05-13T00:09:58.539Z,100142.78
2023-05-13T00:12:25.624Z,100144.47
2023-05-13T00:14:52.726Z,100142.75
2023-05-13T00:17:19.849Z,100146.19
2023-05-13T00:19:47.037Z,100141.88
2023-05-13T00:22:14.167Z,100148.78
2023-05-13T00:24:41.183Z,100150.53
2023-05-13T00:27:08.741Z,100150.34
2023-05-13T00:29:36.196Z,100149.44
2023-05-13T00:32:03.666Z,100148.53
2023-05-13T00:34:31.058Z,100151.97
2023-05-13T00:36:58.210Z,100144.16
2023-05-13T00:39:25.576Z,100144.16
2023-05-13T00:41:52.649Z,100141.56
2023-05-13T00:44:19.885Z,100141.59
2023-05-13T00:46:47.106Z,100136.34
2023-05-13T00:49:14.241Z,100137.22
2023-05-13T00:51:41.342Z,100141.41
2023-05-13T00:54:08.462Z,100133.59
2023-05-13T00:56:38.140Z,100142.13
2023-05-13T00:59:05.425Z,100141.19
2023-05-13T01:01:51.982Z,100146.31
2023-05-13T01:04:44.120Z,100139.34
2023-05-13T01:07:23.138Z,100147.13
2023-05-13T01:09:55.374Z,100149.69
2023-05-13T01:12:29.371Z,100147.97
2023-05-13T01:15:05.804Z,100147.91
2023-05-13T01:18:11.819Z,100147.03
2023-05-13T01:20:42.652Z,100142.75
2023-05-13T01:23:11.549Z,100142.78
2023-05-13T01:25:40.289Z,100141.94
2023-05-13T01:28:08.182Z,100142.00
2023-05-13T01:30:36.960Z,100136.94
2023-05-13T01:33:05.312Z,100139.63
2023-05-13T01:35:32.639Z,100137.97
2023-05-13T01:38:00.846Z,100145.78
2023-05-13T01:40:32.779Z,100142.38
2023-05-13T01:43:06.265Z,100142.44
2023-05-13T01:45:33.792Z,100144.22
2023-05-13T01:48:01.900Z,100150.34
2023-05-13T01:50:38.988Z,100148.69
2023-05-13T01:53:07.003Z,100151.34
2023-05-13T01:55:35.114Z,100144.44
2023-05-13T01:58:04.360Z,100140.19
2023-05-13T02:00:31.578Z,100149.72
2023-05-13T02:02:58.957Z,100151.44
2023-05-13T02:05:26.135Z,100161.78
2023-05-13T02:07:54.964Z,100156.69
2023-05-13T02:10:22.407Z,100157.56
2023-05-13T02:12:49.836Z,100160.19
2023-05-13T02:15:17.174Z,100158.50
2023-05-13T02:17:44.661Z,100169.75
2023-05-13T02:20:12.914Z,100156.84
2023-05-13T02:22:40.148Z,100158.56
2023-05-13T02:25:08.758Z,100160.34
2023-05-13T02:27:37.693Z,100164.72
2023-05-13T02:30:05.550Z,100176.00
2023-05-13T02:32:33.853Z,100182.91
2023-05-13T02:35:01.055Z,100183.78
2023-05-13T02:37:28.207Z,100180.38
2023-05-13T02:40:02.030Z,100187.34
2023-05-13T02:42:29.722Z,100182.16
2023-05-13T02:44:57.651Z,100181.34
2023-05-13T02:47:26.571Z,100183.09
2023-05-13T02:49:56.151Z,100183.16
2023-05-13T02:52:23.704Z,100192.69
2023-05-13T02:54:50.921Z,100188.41
2023-05-13T02:57:18.263Z,100193.59
2023-05-13T02:59:46.245Z,100193.63
2023-05-13T03:02:13.506Z,100188.47
2023-05-13T03:04:41.368Z,100190.22
2023-05-13T03:07:08.762Z,100189.41
2023-05-13T03:09:39.125Z,100191.19
2023-05-13T03:12:08.074Z,100193.81
2023-05-13T03:14:36.967Z,100183.53
2023-05-13T03:17:04.670Z,100193.94
2023-05-13T03:19:33.939Z,100192.22
2023-05-13T03:22:01.148Z,100190.53
2023-05-13T03:24:28.314Z,100194.91
2023-05-13T03:26:56.652Z,100193.25
2023-05-13T05:34:18.189Z,100221.28
2023-05-13T05:36:45.425Z,100217.31
2023-05-13T05:39:13.736Z,100223.13
2023-05-13T05:41:40.780Z,100227.13
2023-05-13T05:44:08.127Z,100218.84
2023-05-13T05:46:35.218Z,100214.06
2023-05-13T05:49:09.469Z,100221.28
2023-05-13T05:51:37.453Z,100220.63
2023-05-13T05:54:05.925Z,100225.72
2023-05-13T05:56:33.104Z,100224.44
2023-05-13T05:59:00.488Z,100226.63
2023-05-13T06:01:33.941Z,100227.88
2023-05-13T06:04:01.267Z,100231.38
2023-05-13T06:06:29.914Z,100226.22
2023-05-13T06:08:57.057Z,100226.84
2023-05-13T06:11:24.045Z,100226.41
2023-05-13T06:13:51.541Z,100231.50
2023-05-13T06:16:18.708Z,100228.56
2023-05-13T06:18:45.823Z,100231.91
2023-05-13T06:21:12.913Z,100231.75
2023-05-13T06:23:40.577Z,100227.63
2023-05-13T06:26:07.769Z,100225.56
2023-05-13T06:28:35.859Z,100221.53
2023-05-13T06:31:03.059Z,100221.78
2023-05-13T06:33:30.178Z,100225.03
2023-05-13T06:35:57.367Z,100221.44
2023-05-13T06:38:25.847Z,100222.00
2023-05-13T06:40:56.595Z,100223.59
2023-05-13T06:43:30.927Z,100223.19
2023-05-13T06:46:01.956Z,100227.31
2023-05-13T06:48:29.681Z,100220.69
2023-05-13T06:50:57.445Z,100226.38
2023-05-13T06:53:24.499Z,100214.47
2023-05-13T06:55:51.592Z,100220.47
2023-05-13T06:58:18.637Z,100219.16
2023-05-13T07:00:47.091Z,100218.59
2023-05-13T07:03:14.258Z,100214.94
2023-05-13T07:05:41.309Z,100213.09
2023-05-13T07:08:08.790Z,100212.81
2023-05-13T07:10:36.276Z,100211.16
2023-05-13T07:13:03.533Z,100209.72
2023-05-13T07:15:30.822Z,100206.41
2023-05-13T07:17:57.869Z,100208.63
2023-05-13T07:20:26.689Z,100209.56
2023-05-13T07:22:54.081Z,100211.50
2023-05-13T07:25:21.304Z,100206.91
2023-05-13T07:27:48.631Z,100209.00
2023-05-13T07:30:16.036Z,100207.22
2023-05-13T07:32:43.565Z,100211.59
2023-05-13T07:35:10.934Z,100212.19
2023-05-13T07:37:38.419Z,100204.50
2023-05-13T07:40:06.534Z,100209.38
2023-05-13T07:42:33.825Z,100201.78
2023-05-13T07:45:00.918Z,100207.94
2023-05-13T07:47:29.391Z,100206.56
2023-05-13T07:49:56.724Z,100205.78
2023-05-13T07:52:23.837Z,100207.88
2023-05-13T07:54:50.955Z,100200.00
2023-05-13T07:57:18.802Z,100203.53
2023-05-13T07:59:49.458Z,100197.94
2023-05-13T08:02:16.564Z,100201.22
2023-05-13T08:04:44.031Z,100198.84
2023-05-13T08:07:11.928Z,100197.41
2023-05-13T08:09:39.108Z,100204.09
2023-05-13T08:12:06.566Z,100197.00
2023-05-13T08:14:33.631Z,100194.13
2023-05-13T08:17:01.150Z,100199.34
2023-05-13T08:19:28.298Z,100191.03
2023-05-13T08:21:55.500Z,100192.59
2023-05-13T08:24:22.516Z,100199.31
2023-05-13T08:26:49.621Z,100195.88
2023-05-13T08:29:16.685Z,100187.59
2023-05-13T08:31:43.756Z,100188.91
2023-05-13T08:34:11.129Z,100182.53
2023-05-13T08:36:38.172Z,100178.66
2023-05-13T08:39:05.375Z,100184.78
2023-05-13T08:41:32.534Z,100176.50
2023-05-13T08:44:00.535Z,100177.28
2023-05-13T08:46:27.946Z,100177.78
2023-05-13T08:48:55.935Z,100178.47
2023-05-13T08:51:23.009Z,100170.69
2023-05-13T08:53:50.512Z,100176.63
2023-05-13T08:56:17.565Z,100178.22
2023-05-13T08:58:44.647Z,100168.91
2023-05-13T09:01:11.777Z,100175.13
2023-05-13T09:03:50.439Z,100163.97
2023-05-13T09:06:17.576Z,100172.56
2023-05-13T09:08:44.651Z,100176.72
2023-05-13T09:11:17.434Z,100162.66
2023-05-13T09:13:44.855Z,100157.47
2023-05-13T09:16:14.305Z,100171.28
2023-05-13T09:18:42.242Z,100160.94
2023-05-13T09:21:23.697Z,100159.75
2023-05-13T09:23:53.413Z,100158.50
2023-05-13T09:26:29.857Z,100155.16
2023-05-13T09:29:20.718Z,100151.47
2023-05-13T09:31:55.330Z,100154.50
2023-05-13T09:34:26.292Z,100149.13
2023-05-13T09:37:12.891Z,100147.34
2023-05-13T09:39:41.663Z,100142.66
2023-05-13T09:42:16.633Z,100147.81
2023-05-13T09:44:44.672Z,100138.78
2023-05-13T09:47:13.030Z,100138.28
2023-05-13T09:49:41.358Z,100137.22
2023-05-13T09:52:11.352Z,100133.00
2023-05-13T09:54:38.875Z,100136.22
2023-05-13T09:57:06.454Z,100130.69
2023-05-13T09:59:36.461Z,100144.09
2023-05-13T10:02:07.619Z,100135.84
2023-05-13T10:04:34.830Z,100130.09
2023-05-13T10:07:03.376Z,100133.41
2023-05-13T10:09:39.466Z,100132.72
2023-05-13T10:12:07.758Z,100130.09
2023-05-13T10:14:37.007Z,100122.59
2023-05-13T10:17:05.445Z,100129.19
2023-05-13T10:19:32.532Z,100119.47
2023-05-13T10:21:59.817Z,100120.25
2023-05-13T10:24:29.073Z,100117.81
2023-05-13T10:26:56.395Z,100116.88
2023-05-13T10:29:23.784Z,100120.75
2023-05-13T10:31:50.914Z,100118.22
2023-05-13T10:34:18.167Z,100121.78
2023-05-13T10:36:48.137Z,100126.94
2023-05-13T10:39:33.471Z,100118.88
2023-05-13T10:42:31.145Z,100114.13
2023-05-13T10:44:58.402Z,100119.63
2023-05-13T10:47:25.564Z,100123.03
2023-05-13T10:49:55.559Z,100119.78
2023-05-13T10:52:22.618Z,100115.59
2023-05-13T10:55:05.207Z,100100.34
2023-05-13T10:57:37.094Z,100111.84
2023-05-13T11:00:17.122Z,100105.81
2023-05-13T11:02:44.455Z,100107.81
2023-05-13T11:05:19.710Z,100107.81
2023-05-13T11:07:57.820Z,100106.19
2023-05-13T11:10:30.180Z,100099.22
2023-05-13T11:13:36.000Z,100101.47
2023-05-13T11:16:04.544Z,100105.22
2023-05-13T11:18:32.989Z,100088.09
2023-05-13T11:21:05.614Z,100094.25
2023-05-13T11:23:34.930Z,100096.75
2023-05-13T11:26:17.217Z,100096.34
2023-05-13T11:29:16.862Z,100100.19
2023-05-13T11:31:53.152Z,100103.59
2023-05-13T11:34:20.600Z,100100.00
2023-05-13T11:36:49.848Z,100107.03
2023-05-13T11:39:21.649Z,100093.22
2023-05-13T11:41:50.315Z,100090.53
2023-05-13T11:44:21.702Z,100095.50
2023-05-13T11:46:55.640Z,100090.81
2023-05-13T11:49:41.969Z,100083.47
2023-05-13T11:52:19.442Z,100084.09
2023-05-13T11:54:48.675Z,100087.84
2023-05-13T11:57:22.924Z,100091.63
2023-05-13T11:59:57.759Z,100083.97
2023-05-13T12:02:33.745Z,100077.91
2023-05-13T12:05:02.486Z,100081.06
2023-05-13T12:07:31.066Z,100079.28
2023-05-13T12:10:59.841Z,100078.34
2023-05-13T12:13:26.837Z,100069.16
2023-05-13T12:15:53.948Z,100074.94
2023-05-13T12:18:21.048Z,100062.88
2023-05-13T12:20:48.090Z,100055.97
2023-05-13T12:23:15.633Z,100062.22
2023-05-13T12:25:43.888Z,100058.19
2023-05-13T12:28:22.087Z,100058.44
2023-05-13T12:30:59.189Z,100055.91
2023-05-13T12:33:27.496Z,100042.84
2023-05-13T12:36:00.362Z,100049.97
2023-05-13T12:38:27.511Z,100049.88
2023-05-13T12:40:55.217Z,100039.06
2023-05-13T12:43:23.150Z,100039.28
2023-05-13T12:45:54.371Z,100036.16
2023-05-13T12:48:24.030Z,100049.63
2023-05-13T12:50:51.657Z,100055.75
2023-05-13T12:53:18.773Z,100058.09
2023-05-13T12:55:45.738Z,100048.06
2023-05-13T12:58:13.296Z,100045.19
2023-05-13T13:00:40.502Z,100054.06
2023-05-13T13:03:08.390Z,100054.50
2023-05-13T13:05:35.878Z,100046.19
2023-05-13T13:08:05.491Z,100054.44
2023-05-13T13:10:32.989Z,100050.44
2023-05-13T13:13:00.178Z,100055.13
2023-05-13T13:15:27.484Z,100049.22
2023-05-13T13:17:54.651Z,100047.59
2023-05-13T13:20:22.483Z,100044.31
2023-05-13T13:22:49.615Z,100043.66
2023-05-13T13:25:16.775Z,100055.16
2023-05-13T13:27:44.075Z,100044.59
2023-05-13T13:30:11.834Z,100051.66
2023-05-13T13:32:38.983Z,100041.03
2023-05-13T13:35:06.425Z,100039.59
2023-05-13T13:37:33.965Z,100039.81
2023-05-13T13:40:02.800Z,100037.25
2023-05-13T13:42:43.504Z,100039.94
2023-05-13T13:45:13.224Z,100037.59
2023-05-13T13:47:40.999Z,100031.38
2023-05-13T13:50:08.308Z,100037.09
2023-05-13T13:52:35.557Z,100036.81
2023-05-13T13:55:02.634Z,100037.16
2023-05-13T13:57:31.352Z,100035.56
2023-05-13T13:59:58.578Z,100036.63
2023-05-13T14:02:25.809Z,100044.75
2023-05-13T14:04:54.050Z,100039.69
2023-05-13T14:07:21.231Z,100042.53
2023-05-13T14:09:49.918Z,100038.38
2023-05-13T14:12:17.351Z,100043.06
2023-05-13T14:14:44.587Z,100052.03
2023-05-13T14:17:12.518Z,100041.75
2023-05-13T14:19:41.355Z,100043.59
2023-05-13T14:22:08.408Z,100042.75
2023-05-13T14:24:35.427Z,100042.75
2023-05-13T14:27:02.481Z,100041.25
2023-05-13T14:29:29.600Z,100035.19
2023-05-13T14:31:56.845Z,100034.53
2023-05-13T14:34:23.897Z,100043.63
2023-05-13T14:36:51.471Z,100038.53
2023-05-13T14:39:18.620Z,100035.16
2023-05-13T14:41:46.346Z,100045.09
2023-05-13T14:44:14.140Z,100039.22
2023-05-13T14:46:41.830Z,100045.41
2023-05-13T14:49:09.033Z,100041.97
2023-05-13T14:51:36.172Z,100044.88
2023-05-13T14:54:03.523Z,100042.50
2023-05-13T14:56:31.035Z,100038.38
2023-05-13T14:58:58.137Z,100042.16
2023-05-13T15:01:25.435Z,100037.97
2023-05-13T15:03:52.629Z,100035.44
2023-05-13T15:06:22.641Z,100040.84
2023-05-13T15:08:49.866Z,100035.69
2023-05-13T15:11:17.353Z,100032.34
2023-05-13T15:13:44.456Z,100031.59
2023-05-13T15:16:11.905Z,100031.78
2023-05-13T15:18:39.463Z,100038.88
2023-05-13T15:21:06.669Z,100032.03
2023-05-13T15:23:34.209Z,100035.69
2023-05-13T15:26:01.199Z,100031.47
2023-05-13T15:28:29.376Z,100035.09
2023-05-13T15:30:56.523Z,100036.06
2023-05-13T15:33:23.698Z,100034.47
2023-05-13T15:35:51.042Z,100033.72
2023-05-13T15:38:18.211Z,100035.63
2023-05-13T15:40:47.523Z,100032.28
2023-05-13T15:43:14.630Z,100033.41
2023-05-13T15:45:41.688Z,100031.75
2023-05-13T15:48:09.039Z,100037.25
2023-05-13T15:50:36.368Z,100029.56
2023-05-13T15:53:03.351Z,100031.63
2023-05-13T15:55:32.059Z,100030.88
2023-05-13T15:57:59.237Z,100032.81
2023-05-13T16:00:26.585Z,100034.03
2023-05-13T16:02:53.689Z,100028.06
2023-05-13T16:05:20.828Z,100031.81
2023-05-13T16:07:48.058Z,100031.94
2023-05-13T16:10:15.523Z,100034.81
2023-05-13T16:12:43.260Z,100031.47
2023-05-13T16:15:11.381Z,100031.69
2023-05-13T16:17:38.782Z,100035.38
2023-05-13T16:20:06.687Z,100025.97
2023-05-13T16:22:37.894Z,100034.84
2023-05-13T16:25:09.608Z,100035.84
2023-05-13T16:27:40.653Z,100039.63
2023-05-13T16:30:13.701Z,100043.47
2023-05-13T16:32:40.918Z,100041.00
2023-05-13T16:35:10.146Z,100049.91
2023-05-13T16:37:37.307Z,100042.22
2023-05-13T16:40:05.152Z,100049.38
2023-05-13T16:42:32.445Z,100047.00
2023-05-13T16:44:59.644Z,100049.06
2023-05-13T16:47:26.821Z,100051.81
2023-05-13T16:49:56.230Z,100050.38
2023-05-13T16:52:24.220Z,100053.25
2023-05-13T16:54:51.587Z,100052.63
2023-05-13T16:57:19.440Z,100054.56
2023-05-13T16:59:46.495Z,100060.94
2023-05-13T17:02:14.319Z,100053.22
2023-05-13T17:04:41.585Z,100057.75
2023-05-13T17:07:09.743Z,100060.53
2023-05-13T17:09:37.482Z,100074.72
2023-05-13T17:12:04.970Z,100066.22
2023-05-13T17:14:32.115Z,100073.44
2023-05-13T17:16:59.236Z,100071.91
2023-05-13T17:19:26.393Z,100079.97
2023-05-13T17:21:53.432Z,100076.78
2023-05-13T17:24:22.461Z,100075.31
2023-05-13T17:26:50.126Z,100080.78
2023-05-13T17:29:17.392Z,100074.88
2023-05-13T17:31:45.207Z,100082.13
2023-05-13T17:34:12.693Z,100082.25
2023-05-13T17:36:39.767Z,100089.44
2023-05-13T17:39:06.825Z,100095.78
2023-05-13T17:41:33.926Z,100108.25
2023-05-13T17:44:01.112Z,100111.03
2023-05-13T17:46:28.246Z,100109.56
2023-05-13T17:48:55.906Z,100112.50
2023-05-13T17:51:23.582Z,100113.56
2023-05-13T17:53:53.717Z,100108.38
2023-05-13T17:56:21.688Z,100118.00
2023-05-13T17:58:51.723Z,100118.06
2023-05-13T18:01:21.939Z,100112.06
2023-05-13T18:03:49.343Z,100118.19
2023-05-13T18:06:16.603Z,100119.97
2023-05-13T18:08:43.943Z,100122.59
2023-05-13T18:11:12.199Z,100113.91
2023-05-13T18:13:39.400Z,100122.72
2023-05-13T18:16:09.228Z,100120.16
2023-05-13T18:18:37.001Z,100119.44
2023-05-13T18:21:04.211Z,100110.75
2023-05-13T18:23:32.884Z,100112.63
2023-05-13T18:25:59.956Z,100118.78
2023-05-13T18:28:27.036Z,100124.94
2023-05-13T18:30:54.377Z,100125.94
2023-05-13T18:33:21.918Z,100136.50
2023-05-13T18:35:49.064Z,100138.38
2023-05-13T18:38:16.284Z,100139.38
2023-05-13T18:40:43.415Z,100142.06
2023-05-13T18:43:10.656Z,100150.84
2023-05-13T18:45:37.791Z,100147.50
2023-05-13T18:48:08.324Z,100149.31
2023-05-13T18:50:35.558Z,100142.38
2023-05-13T18:53:02.865Z,100150.25
2023-05-13T18:55:30.000Z,100148.59
2023-05-13T18:57:57.149Z,100147.75
2023-05-13T19:00:24.453Z,100144.28
2023-05-13T19:02:52.056Z,100138.19
2023-05-13T19:05:20.504Z,100151.31
2023-05-13T19:07:47.851Z,100147.06
2023-05-13T19:10:16.086Z,100147.97
2023-05-13T19:12:43.173Z,100145.50
2023-05-13T19:15:11.507Z,100147.31
2023-05-13T19:17:40.561Z,100149.97
2023-05-13T19:20:08.687Z,100155.28
2023-05-13T19:22:35.839Z,100160.59
2023-05-13T19:25:03.240Z,100156.31
2023-05-13T19:27:31.739Z,100157.22
2023-05-13T19:29:59.248Z,100152.88
2023-05-13T19:32:26.466Z,100160.69
2023-05-13T19:34:53.639Z,100156.34
2023-05-13T19:37:20.746Z,100165.94
2023-05-13T19:39:48.050Z,100172.91
2023-05-13T19:42:15.198Z,100170.31
2023-05-13T19:44:42.646Z,100178.19
2023-05-13T19:47:09.763Z,100169.50
2023-05-13T19:49:37.018Z,100174.75
2023-05-13T19:52:04.321Z,100173.88
2023-05-13T19:54:31.605Z,100179.13
2023-05-13T19:56:58.809Z,100187.81
2023-05-13T19:59:25.844Z,100185.22
2023-05-13T20:01:53.204Z,100178.31
2023-05-13T20:04:20.501Z,100183.56
2023-05-13T20:06:47.805Z,100186.16
2023-05-13T20:09:15.029Z,100182.66
2023-05-13T20:11:42.097Z,100183.56
2023-05-13T20:14:09.229Z,100186.22
2023-05-13T20:16:37.053Z,100189.69
2023-05-13T20:19:04.514Z,100188.84
2023-05-13T20:21:32.763Z,100192.34
2023-05-13T20:24:00.012Z,100191.47
2023-05-13T20:26:27.487Z,100196.72
2023-05-13T20:28:54.540Z,100193.25
2023-05-13T20:31:21.616Z,100196.72
2023-05-13T20:33:48.773Z,100191.47
2023-05-13T20:36:15.972Z,100199.31
2023-05-13T20:38:43.397Z,100196.69
2023-05-13T20:41:10.491Z,100196.72
2023-05-13T20:43:37.644Z,100203.75
2023-05-13T20:46:07.047Z,100203.75
2023-05-13T20:48:35.271Z,100198.59
2023-05-13T20:51:03.877Z,100206.47
2023-05-13T20:53:34.501Z,100210.00
2023-05-13T20:56:02.571Z,100207.44
2023-05-13T20:58:31.096Z,100203.13
2023-05-13T21:00:59.073Z,100208.38
2023-05-13T21:03:26.542Z,100211.00
2023-05-13T21:05:53.581Z,100216.28
2023-05-13T21:08:20.670Z,100212.00
2023-05-13T21:10:47.919Z,100214.66
2023-05-13T21:13:15.155Z,100208.59
2023-05-13T21:15:42.442Z,100210.34
2023-05-13T21:18:09.701Z,100205.13
2023-05-13T21:20:36.856Z,100202.53
2023-05-13T21:23:04.104Z,100204.28
2023-05-13T21:25:31.279Z,100203.44
2023-05-13T21:27:58.551Z,100207.81
2023-05-13T21:30:26.076Z,100213.03
2023-05-13T21:32:53.310Z,100206.13
2023-05-13T21:35:20.722Z,100210.53
2023-05-13T21:37:48.777Z,100210.53
2023-05-13T21:40:16.737Z,100211.41
2023-05-13T21:42:43.899Z,100214.94
2023-05-13T21:45:12.004Z,100207.16
2023-05-13T21:47:39.441Z,100219.34
2023-05-13T21:50:07.932Z,100226.31
2023-05-13T21:52:35.024Z,100223.72
2023-05-13T21:55:02.096Z,100217.66
2023-05-13T21:57:32.877Z,100221.97
2023-05-13T21:59:59.895Z,100217.66
2023-05-13T22:02:27.166Z,100222.88
2023-05-13T22:04:54.343Z,100222.00
2023-05-13T22:07:21.356Z,100224.63
2023-05-13T22:09:50.331Z,100225.53
2023-05-13T22:12:17.700Z,100226.38
2023-05-13T22:14:45.395Z,100219.47
2023-05-13T22:17:12.758Z,100220.34
2023-05-13T22:19:39.986Z,100223.81
2023-05-13T22:22:07.123Z,100222.97
2023-05-13T22:24:34.120Z,100218.63
2023-05-13T22:27:01.351Z,100220.38
2023-05-13T22:29:28.519Z,100225.56
2023-05-13T22:31:57.558Z,100229.03
2023-05-13T22:34:26.163Z,100220.38
2023-05-13T22:36:53.118Z,100217.78
2023-05-13T22:39:20.412Z,100220.38
2023-05-13T22:41:47.690Z,100217.78
2023-05-13T22:44:14.727Z,100221.25
2023-05-13T22:46:41.782Z,100219.50
2023-05-13T22:49:10.496Z,100216.88
2023-05-13T22:51:37.729Z,100214.28
2023-05-13T22:54:04.815Z,100214.25
2023-05-13T22:56:31.785Z,100218.59
2023-05-13T22:58:59.387Z,100224.63
2023-05-13T23:01:26.332Z,100215.97
2023-05-13T23:03:53.518Z,100230.69
2023-05-13T23:06:20.805Z,100223.75
2023-05-13T23:08:48.482Z,100228.09
2023-05-13T23:11:15.749Z,100220.28
2023-05-13T23:13:42.734Z,100231.50
2023-05-13T23:16:09.954Z,100225.44
2023-05-13T23:18:37.325Z,100234.97
2023-05-13T23:21:04.798Z,100227.19
2023-05-13T23:23:32.025Z,100231.50
2023-05-13T23:25:59.091Z,100231.47
2023-05-13T23:28:26.099Z,100230.59
2023-05-13T23:30:54.377Z,100233.19
2023-05-13T23:33:21.413Z,100231.44
2023-05-13T23:35:54.599Z,100237.50
2023-05-13T23:38:21.859Z,100239.25
2023-05-13T23:40:48.924Z,100244.41
2023-05-13T23:43:16.265Z,100246.09
2023-05-13T23:45:43.431Z,100246.97
2023-05-13T23:48:10.679Z,100241.78
2023-05-13T23:50:37.996Z,100253.00
2023-05-13T23:53:05.517Z,100243.44
2023-05-13T23:55:32.496Z,100246.03
2023-05-13T23:57:59.559Z,100246.03
